Terminal Aerodrome Forecast
Issued by NWS St Louis, MO

Home | Current Version | Previous Version | Text Only | Print | Product List | Glossary On
Versions: 1 2 3 4 5 6 7 8 9 10 11 12 13 14 15 16 17 18
000
FTUS43 KLSX 211100
TAFCOU
TAF
KCOU 211128Z 2112/2212 19006KT P6SM VCSH FEW060 SCT120
     FM211400 24008KT 5SM -SHRA VCTS SCT060CB BKN120
     FM220200 32008KT P6SM SKC=

USA.gov is the U.S. government's official web portal to all federal, state and local government web resources and services.